Ballinger, TX

5:41 AM CDT on April 28, 2015 (GMT -0500)
Hutchings Ave | | Change Station
CLOSE
Current Station
Personal Weather Station
Location: Ballinger, TX
Elevation: 1631 ft
Nearby Weather Stations

Elev 1631 ft 31.74 °N, 99.95 °W | Updated 29 seconds ago

Overcast
Overcast
52.0 °F
Feels Like 52.0 °F
N
8.1
Wind Variable Wind from NNW
Gusts 11.0 mph

Today
High -- | Low -- °F
--% Chance of Precip.
Yesterday
High -- | Low -- °F
Precip. -- in
6:57 AM 8:17 PM
Waxing Gibbous, 72% visible
Pressure 29.99 in
Visibility 5.0 miles
Clouds Scattered Clouds 500 ft
Mostly Cloudy 1400 ft
Overcast 2600 ft
Dew Point 48 °F
Humidity 86%
Rainfall 0.00 in
Snow Depth Not available.
UV 0 out of 12
Pollen 8.50 out of 12
Air Quality Not available.
Flu Activity Local Activity
METAR KCOM 281035Z AUTO 01012KT 5SM RA SCT005 BKN014 OVC026 11/11 A2999 RMK AO2 P0004 T01080107

More Conditions Fewer Conditions

Pressure 29.99 in
Visibility 5.0 miles
Clouds Scattered Clouds 500 ft
Mostly Cloudy 1400 ft
Overcast 2600 ft
Dew Point 48 °F
Humidity 86%
Rainfall 0.00 in
Snow Depth Not available.
UV 0 out of 12
Pollen 8.50 out of 12
Air Quality Not available.
Flu Activity Local Activity
METAR KCOM 281035Z AUTO 01012KT 5SM RA SCT005 BKN014 OVC026 11/11 A2999 RMK AO2 P0004 T01080107

More Conditions Fewer Conditions

10-Day Weather Forecast

Almanac

Astronomy

Apr. 28, 2015 Rise Set
Actual Time
Civil Twilight
Nautical Twilight
Astronomical Twilight
Moon
Length of Visible Light
Length of Day
Tomorrow will be .
, % of the Moon is Illuminated

Today's Extremes

State Highs State Lows

Community

WunderPhotos

Upload Photos

1,817,603 photos uploaded!

WunderBlogs® & News

Nearby

Air Quality

  Air Quality AQ Index Pollutant
Not available.

Snow Depth

Station Depth Elevation

Earthquake Activity

City Distance Mag. Time & Date
Minimum magnitude displayed is 2.5.

Coastal Water Temperatures

Place Temperature

Stations

Nearby Weather Stations

Station Location Temp. Windchill Dew Point Humidity Wind Precip. Elev Updated Type